Time;durP1;ratioP1;P1;durP2;ratioP2;P2;SDS_P1;SDS_P2;PMS_P1;PMS_P2;Temp;Humidity;BMP_temperature;BMP_pressure;BME280_temperature;BME280_humidity;BME280_pressure;Samples;Min_cycle;Max_cycle;Signal;HPM_P1;HPM_P2
2023/03/24 00:02:15;;;;;;;20.20;15.80;;;;;;;13.31;45.49;100100.83;105620;1253;60773;-47
2023/03/24 00:04:46;;;;;;;20.80;16.00;;;;;;;13.33;45.32;100095.88;105291;1256;65873;-47
2023/03/24 00:07:14;;;;;;;19.30;16.00;;;;;;;13.35;45.26;100089.02;105333;1254;62633;-49
2023/03/24 00:09:45;;;;;;;20.90;16.40;;;;;;;13.37;45.24;100090.04;105618;1253;64818;-47
2023/03/24 00:12:13;;;;;;;22.60;16.20;;;;;;;13.39;45.26;100093.41;105461;1254;60571;-47
2023/03/24 00:14:46;;;;;;;20.30;16.70;;;;;;;13.40;45.30;100091.05;105948;1254;60438;-46
2023/03/24 00:17:16;;;;;;;22.30;15.70;;;;;;;13.41;45.27;100093.07;106153;1257;65909;-46
2023/03/24 00:19:45;;;;;;;22.50;15.20;;;;;;;13.41;45.25;100084.38;105540;1257;61662;-48
2023/03/24 00:26:37;;;;;;;19.40;15.50;;;;;;;13.42;45.28;100064.55;105267;1257;60562;-46
2023/03/24 00:29:09;;;;;;;22.40;16.50;;;;;;;13.41;45.24;100060.61;106794;1253;61632;-50
2023/03/24 00:31:38;;;;;;;20.50;14.60;;;;;;;13.42;45.24;100061.23;105582;1253;66177;-47
2023/03/24 00:34:08;;;;;;;19.20;15.80;;;;;;;13.43;45.22;100063.98;105334;1254;62488;-47
2023/03/24 00:36:38;;;;;;;21.00;16.60;;;;;;;13.43;45.35;100066.25;105501;1253;63982;-46
2023/03/24 00:39:06;;;;;;;21.40;15.80;;;;;;;13.42;45.35;100070.03;105458;1253;60578;-47
2023/03/24 00:41:46;;;;;;;21.50;17.10;;;;;;;13.42;45.40;100070.87;105429;1253;60436;-47
2023/03/24 00:48:19;;;;;;;18.50;16.20;;;;;;;13.42;45.61;100066.56;105326;1253;63890;-49
2023/03/24 00:50:48;;;;;;;20.20;17.00;;;;;;;13.41;45.60;100059.95;105398;1259;64800;-47
2023/03/24 00:53:16;;;;;;;25.50;16.60;;;;;;;13.41;45.72;100059.91;105591;1253;60473;-46
2023/03/24 00:55:48;;;;;;;21.70;17.20;;;;;;;13.41;45.78;100060.23;105629;1253;60526;-46
2023/03/24 01:02:01;;;;;;;21.10;15.90;;;;;;;13.37;45.91;100051.63;105359;1254;62548;-46
2023/03/24 01:04:30;;;;;;;21.30;16.70;;;;;;;13.35;45.97;100046.35;105289;1254;65064;-46
2023/03/24 01:06:58;;;;;;;21.20;17.40;;;;;;;13.35;46.06;100046.41;106604;1253;60432;-46
2023/03/24 01:09:27;;;;;;;21.00;16.20;;;;;;;13.34;46.09;100041.17;105610;1253;61897;-45
2023/03/24 01:11:57;;;;;;;25.60;17.10;;;;;;;13.33;46.10;100039.70;105318;1259;66374;-46
2023/03/24 01:14:26;;;;;;;21.80;16.60;;;;;;;13.33;46.08;100038.43;105552;1253;62412;-46
2023/03/24 01:21:17;;;;;;;24.10;17.70;;;;;;;13.32;46.17;100035.73;105602;1257;60358;-49
2023/03/24 01:23:45;;;;;;;24.50;18.00;;;;;;;13.31;46.21;100032.84;105301;1253;60556;-45
2023/03/24 01:26:14;;;;;;;21.80;17.50;;;;;;;13.30;46.27;100031.16;105489;1257;66141;-47
2023/03/24 01:28:43;;;;;;;24.20;17.10;;;;;;;13.29;46.33;100032.54;105444;1257;61420;-47
2023/03/24 01:31:11;;;;;;;24.20;18.30;;;;;;;13.27;46.44;100035.02;105343;1253;64743;-46
2023/03/24 01:33:40;;;;;;;24.60;20.60;;;;;;;13.25;46.43;100036.23;105362;1253;60600;-47
2023/03/24 01:36:09;;;;;;;25.70;19.30;;;;;;;13.24;46.51;100038.47;105572;1254;60460;-47
2023/03/24 01:38:37;;;;;;;29.80;19.80;;;;;;;13.23;46.53;100042.44;105551;1254;66374;-48
2023/03/24 01:41:06;;;;;;;25.30;20.20;;;;;;;13.21;46.58;100041.77;105373;1254;62314;-48
2023/03/24 01:43:35;;;;;;;23.90;18.40;;;;;;;13.19;46.70;100037.67;105337;1253;64768;-48
2023/03/24 01:46:17;;;;;;;25.30;18.90;;;;;;;13.18;46.80;100037.27;105600;1257;60466;-48
2023/03/24 01:49:06;;;;;;;25.00;19.00;;;;;;;13.16;46.86;100031.05;105371;1258;60370;-46
2023/03/24 01:51:39;;;;;;;25.70;20.00;;;;;;;13.16;46.88;100033.00;105388;1257;66279;-46
2023/03/24 01:54:15;;;;;;;26.30;19.50;;;;;;;13.15;46.83;100032.42;105371;1260;63088;-47
2023/03/24 01:56:48;;;;;;;24.60;19.50;;;;;;;13.15;46.94;100029.05;105408;1254;64666;-47
2023/03/24 01:59:19;;;;;;;24.30;19.40;;;;;;;13.15;46.94;100030.48;105365;1261;60770;-47
2023/03/24 02:02:02;;;;;;;27.10;18.80;;;;;;;13.15;46.97;100030.86;105636;1253;60521;-47
2023/03/24 02:04:43;;;;;;;23.80;19.50;;;;;;;13.14;47.01;100026.17;105520;1257;66172;-47
2023/03/24 02:07:47;;;;;;;26.00;19.20;;;;;;;13.12;47.09;100025.09;105435;1253;62649;-48
2023/03/24 02:10:17;;;;;;;23.30;18.90;;;;;;;13.12;47.06;100023.92;105411;1253;65670;-48
2023/03/24 02:12:45;;;;;;;24.70;19.60;;;;;;;13.11;47.15;100029.99;105599;1257;60558;-47
2023/03/24 02:15:16;;;;;;;27.10;19.50;;;;;;;13.09;47.18;100035.46;105411;1253;60424;-47
2023/03/24 02:17:53;;;;;;;28.00;18.60;;;;;;;13.08;47.21;100044.55;105372;1255;65957;-47
2023/03/24 02:20:38;;;;;;;23.40;18.10;;;;;;;13.06;47.30;100046.55;105300;1259;61352;-48
2023/03/24 02:23:40;;;;;;;24.10;18.60;;;;;;;13.02;47.38;100041.81;105344;1253;64941;-48
2023/03/24 02:26:28;;;;;;;25.90;19.00;;;;;;;12.98;47.50;100051.50;105478;1254;60532;-48
2023/03/24 02:29:05;;;;;;;23.90;17.50;;;;;;;12.95;47.55;100062.01;105577;1256;60447;-46
2023/03/24 02:31:59;;;;;;;25.90;18.60;;;;;;;12.92;47.65;100061.70;105451;1256;65933;-47
2023/03/24 02:34:29;;;;;;;24.20;18.50;;;;;;;12.90;47.75;100067.88;105418;1253;62713;-48
2023/03/24 02:37:17;;;;;;;29.90;18.70;;;;;;;12.88;47.82;100064.02;105370;1256;64760;-48
2023/03/24 02:40:07;;;;;;;24.10;17.90;;;;;;;12.87;47.89;100066.45;105375;1253;61625;-47
2023/03/24 02:42:55;;;;;;;24.70;19.30;;;;;;;12.84;47.98;100063.71;105302;1254;60493;-47
2023/03/24 02:45:31;;;;;;;24.00;18.30;;;;;;;12.82;48.06;100060.54;105380;1254;66323;-47
2023/03/24 02:48:06;;;;;;;25.50;18.40;;;;;;;12.80;48.04;100063.95;105227;1253;62655;-48
2023/03/24 02:51:03;;;;;;;25.30;18.50;;;;;;;12.79;48.08;100067.38;105449;1254;65052;-47
2023/03/24 02:53:54;;;;;;;22.80;17.30;;;;;;;12.77;48.23;100066.35;105426;1253;60450;-48
2023/03/24 02:56:57;;;;;;;22.30;17.60;;;;;;;12.74;48.34;100058.84;105616;1253;60496;-46
2023/03/24 02:59:48;;;;;;;21.90;17.60;;;;;;;12.74;48.27;100066.81;105475;1256;65986;-46
2023/03/24 03:02:45;;;;;;;21.20;17.20;;;;;;;12.72;48.18;100070.31;105481;1254;62927;-47
2023/03/24 03:05:21;;;;;;;24.00;17.50;;;;;;;12.71;48.30;100069.35;105742;1257;64016;-48
2023/03/24 03:07:50;;;;;;;22.00;17.50;;;;;;;12.71;48.38;100070.57;105324;1256;60411;-48
2023/03/24 03:10:28;;;;;;;24.90;17.40;;;;;;;12.71;48.46;100075.33;105322;1253;60581;-47
2023/03/24 03:13:01;;;;;;;19.00;16.60;;;;;;;12.71;48.46;100080.27;105276;1260;65258;-47
2023/03/24 03:15:42;;;;;;;24.20;18.00;;;;;;;12.71;48.42;100074.84;105382;1258;61756;-47
2023/03/24 03:18:15;;;;;;;23.30;17.60;;;;;;;12.71;48.44;100071.48;105559;1254;65045;-47
2023/03/24 03:20:53;;;;;;;24.30;17.90;;;;;;;12.69;48.41;100076.74;105177;1254;60421;-47
2023/03/24 03:23:30;;;;;;;22.90;17.60;;;;;;;12.69;48.43;100078.33;105392;1253;60532;-48
2023/03/24 03:26:04;;;;;;;21.10;17.00;;;;;;;12.68;48.49;100077.05;105337;1261;65868;-46
2023/03/24 03:28:37;;;;;;;25.10;17.20;;;;;;;12.69;48.58;100075.55;105355;1253;62420;-47
2023/03/24 03:31:07;;;;;;;19.90;15.50;;;;;;;12.66;48.57;100071.91;105464;1257;63693;-45
2023/03/24 03:34:05;;;;;;;27.50;17.40;;;;;;;12.64;48.58;100073.34;105389;1253;60468;-46
2023/03/24 03:36:37;;;;;;;22.80;16.60;;;;;;;12.63;48.71;100071.55;105557;1258;60446;-48
2023/03/24 03:39:14;;;;;;;22.30;16.30;;;;;;;12.60;48.72;100067.21;105363;1259;66107;-46
2023/03/24 03:41:44;;;;;;;23.20;17.00;;;;;;;12.59;48.74;100068.38;105259;1254;62687;-47
2023/03/24 03:44:13;;;;;;;25.60;16.70;;;;;;;12.58;48.84;100073.95;105373;1254;65018;-46
2023/03/24 03:46:41;;;;;;;22.90;16.40;;;;;;;12.56;48.89;100073.89;105726;1253;60559;-47
2023/03/24 03:49:11;;;;;;;21.50;17.20;;;;;;;12.56;48.93;100073.56;105450;1254;60602;-46
2023/03/24 03:51:46;;;;;;;22.20;17.10;;;;;;;12.59;48.87;100079.80;105351;1259;66647;-46
2023/03/24 03:54:16;;;;;;;19.50;16.50;;;;;;;12.60;48.87;100082.99;105348;1253;62213;-47
2023/03/24 03:56:47;;;;;;;24.50;18.00;;;;;;;12.59;48.95;100084.76;105301;1253;65122;-48
2023/03/24 03:59:24;;;;;;;21.40;16.70;;;;;;;12.57;48.98;100085.29;105502;1253;60588;-47
2023/03/24 04:01:53;;;;;;;20.50;17.00;;;;;;;12.56;49.02;100093.39;105228;1253;314596;-48
2023/03/24 04:06:16;;;;;;;20.90;16.80;;;;;;;12.41;49.46;100092.57;102468;1292;600220;-47
2023/03/24 04:08:47;;;;;;;20.40;16.70;;;;;;;12.55;49.23;100087.55;105236;1265;59386;-48
2023/03/24 04:11:28;;;;;;;23.60;16.70;;;;;;;12.56;49.10;100089.41;104834;1268;59321;-48
2023/03/24 04:14:30;;;;;;;23.90;17.80;;;;;;;12.57;49.15;100094.41;104361;1267;64609;-49
2023/03/24 04:17:31;;;;;;;20.00;16.30;;;;;;;12.56;49.20;100092.98;104678;1266;62932;-47
2023/03/24 04:20:23;;;;;;;21.80;16.90;;;;;;;12.54;49.23;100087.27;104729;1263;155901;-48
2023/03/24 04:22:52;;;;;;;22.50;16.70;;;;;;;12.55;49.27;100097.20;105038;1265;59329;-48
2023/03/24 04:25:41;;;;;;;20.70;15.60;;;;;;;12.56;49.27;100103.34;104787;1261;59264;-48
2023/03/24 04:28:19;;;;;;;21.70;16.60;;;;;;;12.54;49.41;100103.10;105024;1265;64708;-48
2023/03/24 04:30:51;;;;;;;21.90;16.50;;;;;;;12.55;49.47;100108.84;104814;1264;62485;-50
2023/03/24 04:33:29;;;;;;;19.70;16.50;;;;;;;12.55;49.49;100104.45;105201;1263;65075;-49
2023/03/24 04:36:17;;;;;;;25.10;17.90;;;;;;;12.55;49.52;100106.77;104676;1268;59762;-49
2023/03/24 04:39:05;;;;;;;19.90;16.10;;;;;;;12.56;49.53;100105.80;104744;1262;60410;-47
2023/03/24 04:41:43;;;;;;;21.70;16.40;;;;;;;12.56;49.49;100110.16;104745;1268;65863;-47
2023/03/24 04:44:20;;;;;;;21.50;16.60;;;;;;;12.58;49.61;100106.84;104903;1263;62940;-47
2023/03/24 04:47:07;;;;;;;20.90;16.30;;;;;;;12.60;49.62;100108.76;104908;1263;65113;-54
2023/03/24 04:49:38;;;;;;;20.20;16.30;;;;;;;12.61;49.57;100111.98;105146;1263;60453;-47
2023/03/24 04:52:08;;;;;;;21.10;15.30;;;;;;;12.63;49.59;100115.83;105466;1254;59653;-49
2023/03/24 04:54:37;;;;;;;20.00;15.10;;;;;;;12.65;49.48;100115.34;105282;1259;65587;-49
2023/03/24 04:57:06;;;;;;;19.40;16.00;;;;;;;12.66;49.45;100119.66;105359;1257;62318;-48
2023/03/24 04:59:45;;;;;;;20.20;15.80;;;;;;;12.67;49.53;100120.96;105668;1259;67474;-48
2023/03/24 05:02:14;;;;;;;21.10;15.80;;;;;;;12.69;49.53;100122.90;105379;1259;59644;-49
2023/03/24 05:04:50;;;;;;;22.20;16.70;;;;;;;12.67;49.57;100128.01;105357;1256;59819;-49
2023/03/24 05:07:26;;;;;;;22.60;15.90;;;;;;;12.66;49.59;100128.23;105286;1259;65505;-50
2023/03/24 05:09:59;;;;;;;21.00;16.40;;;;;;;12.69;49.55;100128.14;105396;1257;62503;-49
2023/03/24 05:12:37;;;;;;;22.20;16.40;;;;;;;12.70;49.67;100134.06;105497;1258;65015;-48
2023/03/24 05:15:17;;;;;;;24.60;17.10;;;;;;;12.70;49.73;100139.11;105251;1260;59628;-47
2023/03/24 05:17:46;;;;;;;21.80;16.20;;;;;;;12.72;49.81;100145.67;105411;1259;59571;-48
2023/03/24 05:20:19;;;;;;;21.30;16.10;;;;;;;12.73;49.91;100142.55;105335;1257;65351;-49
2023/03/24 05:22:49;;;;;;;20.80;17.00;;;;;;;12.75;49.92;100141.80;105347;1256;63101;-49
2023/03/24 05:25:18;;;;;;;17.30;14.60;;;;;;;12.78;49.93;100140.48;105300;1257;72664;-48
2023/03/24 05:27:48;;;;;;;19.50;16.10;;;;;;;12.80;49.92;100140.85;105390;1257;59687;-49
2023/03/24 05:30:20;;;;;;;19.70;15.10;;;;;;;12.82;49.92;100140.13;108872;1255;57433;-50
2023/03/24 05:32:51;;;;;;;21.40;16.20;;;;;;;12.86;49.96;100141.04;108845;1256;64352;-50
2023/03/24 05:35:19;;;;;;;19.50;15.40;;;;;;;12.89;49.92;100138.40;108895;1256;62491;-49
2023/03/24 05:37:48;;;;;;;20.00;16.00;;;;;;;12.93;49.84;100136.30;108875;1256;63818;-48
2023/03/24 05:40:17;;;;;;;21.50;15.70;;;;;;;12.97;49.86;100137.52;108935;1254;57591;-48
2023/03/24 05:42:52;;;;;;;22.90;16.60;;;;;;;13.02;49.77;100137.04;106169;1258;59727;-48
2023/03/24 05:45:29;;;;;;;;;;;;;;;13.10;49.73;100136.64;105446;1261;65451;-48
2023/03/24 05:47:58;;;;;;;19.90;14.50;;;;;;;13.16;49.76;100136.09;106160;1259;61707;-48
2023/03/24 05:50:37;;;;;;;22.00;15.50;;;;;;;13.22;49.68;100136.06;105334;1256;64817;-48
2023/03/24 05:53:05;;;;;;;18.10;14.40;;;;;;;13.28;49.43;100143.79;105412;1257;60810;-48
2023/03/24 05:55:57;;;;;;;19.80;15.80;;;;;;;13.28;49.46;100148.30;105205;1257;59542;-48
2023/03/24 05:58:50;;;;;;;20.50;15.60;;;;;;;13.29;49.40;100147.05;105464;1259;65423;-48
2023/03/24 06:01:18;;;;;;;20.00;14.80;;;;;;;13.31;49.47;100150.33;105433;1259;61757;-47
2023/03/24 06:03:48;;;;;;;19.80;14.60;;;;;;;13.36;49.33;100150.81;105437;1259;64732;-47
2023/03/24 06:06:17;;;;;;;18.10;13.90;;;;;;;13.45;49.33;100149.26;105302;1256;60497;-48
2023/03/24 06:08:53;;;;;;;18.60;15.30;;;;;;;13.51;49.28;100158.14;105174;1254;62019;-48
2023/03/24 06:11:23;;;;;;;18.70;14.40;;;;;;;13.56;49.26;100155.23;105423;1256;73783;-47
2023/03/24 06:13:59;;;;;;;18.90;13.90;;;;;;;13.60;49.18;100153.41;105213;1262;61787;-47
2023/03/24 06:16:37;;;;;;;23.90;14.80;;;;;;;13.65;49.13;100153.64;105253;1257;64991;-46
2023/03/24 06:19:07;;;;;;;17.80;15.00;;;;;;;13.69;48.89;100157.13;105138;1256;59775;-49
2023/03/24 06:21:53;;;;;;;21.20;15.20;;;;;;;13.72;49.04;100159.98;105178;1257;59831;-45
2023/03/24 06:24:28;;;;;;;21.30;14.30;;;;;;;13.78;49.00;100158.71;105221;1257;65169;-47
2023/03/24 06:27:02;;;;;;;20.10;14.90;;;;;;;13.85;48.94;100163.82;105509;1257;62615;-48
2023/03/24 06:29:32;;;;;;;19.60;14.90;;;;;;;13.92;48.94;100167.55;105416;1259;65206;-48
2023/03/24 06:32:01;;;;;;;21.30;15.00;;;;;;;14.02;48.92;100171.41;105434;1254;59831;-47
2023/03/24 06:34:31;;;;;;;20.00;14.80;;;;;;;14.12;48.81;100173.23;105287;1256;59526;-47
2023/03/24 06:37:15;;;;;;;19.20;14.20;;;;;;;14.21;48.52;100167.45;105531;1256;65215;-46
2023/03/24 06:39:44;;;;;;;23.00;15.30;;;;;;;14.26;48.35;100163.67;105498;1259;61354;-49
2023/03/24 06:42:13;;;;;;;19.30;15.10;;;;;;;14.32;48.30;100164.55;105260;1262;64044;-49
2023/03/24 06:44:42;;;;;;;19.20;15.20;;;;;;;14.40;48.36;100160.48;105133;1256;59703;-48
2023/03/24 06:47:10;;;;;;;19.30;15.00;;;;;;;14.47;48.18;100157.05;105228;1257;59762;-48
2023/03/24 06:49:40;;;;;;;19.50;14.10;;;;;;;14.54;48.29;100158.17;105328;1259;65287;-49
2023/03/24 06:52:09;;;;;;;23.10;14.80;;;;;;;14.60;48.34;100151.75;105284;1259;61648;-48
2023/03/24 06:54:43;;;;;;;16.90;13.80;;;;;;;14.66;48.30;100147.42;105344;1259;63973;-48
2023/03/24 06:57:13;;;;;;;18.80;13.90;;;;;;;14.72;47.96;100149.46;105885;1256;59759;-48
2023/03/24 07:00:09;;;;;;;17.80;13.30;;;;;;;14.75;47.73;100152.84;105417;1257;59625;-49
2023/03/24 07:02:48;;;;;;;17.10;13.90;;;;;;;14.76;47.71;100154.23;105856;1260;65463;-48
2023/03/24 07:05:17;;;;;;;22.40;14.80;;;;;;;14.75;47.87;100152.22;105200;1260;62438;-50
2023/03/24 07:07:46;;;;;;;20.00;14.10;;;;;;;14.73;47.94;100154.30;105223;1256;64894;-49
2023/03/24 07:10:39;;;;;;;19.80;13.60;;;;;;;14.68;48.03;100151.05;105292;1262;59569;-49
2023/03/24 07:13:08;;;;;;;20.50;14.80;;;;;;;14.66;48.12;100149.91;105191;1262;60108;-46
2023/03/24 07:15:37;;;;;;;18.20;14.50;;;;;;;14.62;48.24;100153.99;105310;1262;64368;-48
2023/03/24 07:18:08;;;;;;;20.20;13.70;;;;;;;14.60;48.33;100157.77;105465;1259;62673;-47
2023/03/24 07:20:52;;;;;;;18.50;14.60;;;;;;;14.57;48.50;100155.70;105263;1260;73587;-60
2023/03/24 07:23:26;;;;;;;18.80;13.20;;;;;;;14.57;48.67;100154.70;105245;1257;59598;-60
2023/03/24 07:26:03;;;;;;;18.10;13.80;;;;;;;14.56;48.74;100153.32;105535;1260;59762;-62
2023/03/24 07:28:47;;;;;;;17.70;13.50;;;;;;;14.59;48.98;100154.25;105019;1260;65362;-60
2023/03/24 07:31:25;;;;;;;20.00;14.00;;;;;;;14.64;49.01;100155.02;104935;1257;62530;-61
2023/03/24 07:33:59;;;;;;;19.10;13.70;;;;;;;14.67;48.83;100155.24;105748;1260;64745;-60
2023/03/24 07:36:29;;;;;;;16.40;13.20;;;;;;;14.67;48.90;100160.04;104978;1256;59695;-61
2023/03/24 07:38:58;;;;;;;18.60;14.10;;;;;;;14.67;49.15;100160.02;105320;1257;60133;-61
2023/03/24 07:41:31;;;;;;;18.00;14.20;;;;;;;14.70;49.20;100156.25;105276;1256;64107;-62
2023/03/24 07:44:02;;;;;;;25.00;15.40;;;;;;;14.74;49.26;100158.86;105601;1261;62590;-64
2023/03/24 07:46:41;;;;;;;19.20;14.40;;;;;;;14.78;49.20;100165.29;105200;1261;64741;-64
2023/03/24 07:49:11;;;;;;;21.20;14.40;;;;;;;14.82;49.25;100166.50;105870;1256;59679;-64
2023/03/24 07:51:58;;;;;;;19.80;13.60;;;;;;;14.86;49.16;100166.06;105261;1256;59650;-63
2023/03/24 07:54:37;;;;;;;19.00;14.90;;;;;;;14.89;49.10;100160.28;105979;1260;65387;-62
2023/03/24 07:57:05;;;;;;;18.20;14.80;;;;;;;14.95;49.12;100167.67;105493;1258;62600;-61
2023/03/24 07:59:39;;;;;;;18.10;14.20;;;;;;;14.99;49.04;100168.81;105163;1256;65087;-64
2023/03/24 08:02:18;;;;;;;22.20;15.20;;;;;;;14.99;49.01;100163.98;105278;1262;59552;-64
2023/03/24 08:04:55;;;;;;;17.70;14.40;;;;;;;15.02;49.05;100166.39;105326;1258;59855;-64
2023/03/24 08:07:41;;;;;;;17.60;14.40;;;;;;;15.05;49.11;100160.55;105091;1256;64356;-61
2023/03/24 08:10:12;;;;;;;20.10;14.10;;;;;;;15.12;49.03;100161.11;105439;1259;63079;-61
2023/03/24 08:12:44;;;;;;;20.80;15.10;;;;;;;15.21;48.87;100159.34;105980;1256;64935;-71
2023/03/24 08:15:13;;;;;;;21.00;15.60;;;;;;;15.29;48.78;100159.94;105686;1262;59619;-64
2023/03/24 08:17:42;;;;;;;21.00;15.70;;;;;;;15.35;48.81;100155.20;105982;1257;60021;-63
2023/03/24 08:20:20;;;;;;;20.40;14.20;;;;;;;15.44;48.65;100159.79;105846;1259;65372;-63
2023/03/24 08:22:48;;;;;;;18.20;14.80;;;;;;;15.50;48.24;100157.55;105652;1259;62574;-62
2023/03/24 08:25:17;;;;;;;18.40;14.70;;;;;;;15.54;48.10;100160.33;105459;1261;65273;-62
2023/03/24 08:27:49;;;;;;;18.00;14.40;;;;;;;15.57;48.02;100158.23;105282;1257;60584;-59
2023/03/24 08:30:19;;;;;;;19.00;14.50;;;;;;;15.60;47.92;100154.52;105353;1260;60522;-62
2023/03/24 08:32:52;;;;;;;19.30;15.40;;;;;;;15.65;47.72;100149.33;105486;1255;64955;-61
2023/03/24 08:35:24;;;;;;;22.40;15.60;;;;;;;15.68;47.71;100146.02;105911;1259;71225;-62
2023/03/24 08:37:52;;;;;;;17.70;14.10;;;;;;;15.72;47.58;100150.64;105854;1259;64716;-63
2023/03/24 08:40:22;;;;;;;19.20;14.30;;;;;;;15.76;47.45;100152.20;105750;1260;60492;-62
2023/03/24 08:42:59;;;;;;;20.00;15.40;;;;;;;15.79;47.47;100152.74;105650;1255;60498;-61
2023/03/24 08:45:29;;;;;;;20.00;14.50;;;;;;;15.84;47.50;100150.89;105237;1260;64990;-61
2023/03/24 08:48:00;;;;;;;23.80;16.60;;;;;;;15.87;47.29;100146.16;105344;1259;61922;-64
2023/03/24 08:50:33;;;;;;;18.30;15.10;;;;;;;15.90;47.12;100142.41;105625;1261;65784;-61
2023/03/24 08:53:02;;;;;;;20.10;15.40;;;;;;;15.95;47.07;100144.58;105304;1256;60492;-62
2023/03/24 08:55:32;;;;;;;18.30;14.40;;;;;;;16.00;46.98;100146.11;105348;1259;60325;-61
2023/03/24 08:58:00;;;;;;;22.80;16.20;;;;;;;16.07;46.86;100145.26;105336;1257;66235;-61
2023/03/24 09:00:29;;;;;;;20.90;16.50;;;;;;;16.09;46.73;100141.81;105464;1260;62570;-60
2023/03/24 09:03:06;;;;;;;23.00;16.10;;;;;;;16.11;46.58;100147.41;105853;1259;64732;-61
2023/03/24 09:05:35;;;;;;;21.10;16.00;;;;;;;16.15;46.50;100148.45;105797;1260;61276;-60
2023/03/24 09:08:21;;;;;;;20.50;16.10;;;;;;;16.18;46.43;100147.39;105591;1260;60594;-61
2023/03/24 09:10:50;;;;;;;20.40;15.10;;;;;;;16.22;46.36;100148.05;105418;1268;66192;-60
2023/03/24 09:13:19;;;;;;;22.90;15.70;;;;;;;16.27;46.29;100149.95;105295;1259;62682;-61
2023/03/24 09:15:50;;;;;;;22.80;16.40;;;;;;;16.35;46.29;100148.63;105055;1259;65053;-60
2023/03/24 09:18:19;;;;;;;18.90;14.50;;;;;;;16.41;45.98;100147.59;105604;1260;60558;-61
2023/03/24 09:20:48;;;;;;;22.10;15.30;;;;;;;16.47;45.69;100147.65;105346;1260;60384;-61
2023/03/24 09:23:18;;;;;;;20.20;15.40;;;;;;;16.51;45.66;100137.80;105972;1257;65473;-63
2023/03/24 09:25:49;;;;;;;21.40;15.60;;;;;;;16.56;45.80;100132.38;105289;1262;61452;-60
2023/03/24 09:28:23;;;;;;;18.30;14.80;;;;;;;16.64;45.54;100127.02;105338;1261;65049;-61
2023/03/24 09:30:58;;;;;;;20.10;15.00;;;;;;;16.73;45.47;100129.61;105928;1258;60454;-62
2023/03/24 09:33:28;;;;;;;23.90;15.30;;;;;;;16.83;45.45;100135.93;105907;1256;60421;-63
2023/03/24 09:35:57;;;;;;;20.80;15.30;;;;;;;16.95;45.60;100134.33;105889;1270;66153;-62
2023/03/24 09:38:29;;;;;;;21.20;15.60;;;;;;;17.10;45.52;100131.73;105588;1261;61649;-61
2023/03/24 09:41:03;;;;;;;20.50;15.10;;;;;;;17.25;44.85;100131.86;105815;1259;63712;-62
2023/03/24 09:43:39;;;;;;;19.90;15.40;;;;;;;17.34;44.76;100134.05;108889;1256;58506;-60
2023/03/24 09:48:35;;;;;;;19.30;14.80;;;;;;;17.60;44.64;100125.78;102292;1295;600534;-60
2023/03/24 09:51:12;;;;;;;16.50;13.20;;;;;;;17.72;44.22;100125.17;108535;1267;57010;-62
2023/03/24 09:53:59;;;;;;;19.80;14.50;;;;;;;17.85;44.05;100119.05;108562;1266;58360;-60
2023/03/24 09:56:28;;;;;;;17.40;13.80;;;;;;;18.00;43.50;100113.06;108548;1268;63622;-61
2023/03/24 09:58:59;;;;;;;18.20;13.10;;;;;;;18.14;43.61;100115.16;105736;1272;61346;-60
2023/03/24 10:01:28;;;;;;;20.80;12.70;;;;;;;18.29;43.38;100111.77;104522;1264;197099;-58
2023/03/24 10:03:57;;;;;;;16.00;11.90;;;;;;;18.38;42.93;100110.59;104769;1263;59743;-60
2023/03/24 10:06:37;;;;;;;15.50;12.10;;;;;;;18.45;42.52;100109.39;108722;1263;57097;-61
2023/03/24 10:09:26;;;;;;;16.90;12.00;;;;;;;18.49;42.40;100105.77;105924;1264;63289;-63
2023/03/24 10:12:03;;;;;;;15.30;11.60;;;;;;;18.55;42.45;100106.45;104790;1266;62327;-69
2023/03/24 10:14:43;;;;;;;13.60;9.80;;;;;;;18.62;42.48;100106.00;105577;1266;64894;-61
2023/03/24 10:17:35;;;;;;;12.40;10.90;;;;;;;18.74;42.66;100106.18;105029;1262;59759;-70
2023/03/24 10:20:23;;;;;;;14.00;10.30;;;;;;;18.90;42.28;100103.80;105528;1266;59641;-69
2023/03/24 10:23:09;;;;;;;15.30;9.30;;;;;;;19.03;41.73;100105.25;104881;1264;64240;-60
2023/03/24 10:25:53;;;;;;;15.50;9.50;;;;;;;19.09;41.77;100099.54;104875;1264;63094;-62
2023/03/24 10:28:24;;;;;;;12.00;9.30;;;;;;;19.19;41.77;100089.45;105309;1264;74374;-60
2023/03/24 10:30:54;;;;;;;15.20;8.90;;;;;;;19.31;41.44;100091.58;104882;1263;61048;-60
2023/03/24 10:33:22;;;;;;;13.40;8.30;;;;;;;19.41;41.16;100090.73;105294;1264;59760;-59
2023/03/24 10:42:47;;;;;;;10.60;7.90;;;;;;;19.75;40.16;100078.97;105171;1295;601633;-86
2023/03/24 10:45:23;;;;;;;14.30;7.90;;;;;;;19.95;39.57;100069.14;108089;1272;57351;-86
2023/03/24 10:47:53;;;;;;;16.30;9.20;;;;;;;20.08;39.15;100069.38;107922;1269;57315;-86
2023/03/24 10:50:26;;;;;;;11.50;8.30;;;;;;;20.18;38.98;100065.05;108042;1273;64892;-88
2023/03/24 10:52:54;;;;;;;14.00;9.10;;;;;;;20.27;38.68;100059.16;108269;1269;61728;-79
2023/03/24 10:55:30;;;;;;;11.80;8.50;;;;;;;20.30;38.25;100055.90;107667;1271;194190;-78
2023/03/24 10:57:59;;;;;;;11.60;8.10;;;;;;;20.32;38.15;100057.56;108310;1266;57143;-79
2023/03/24 11:00:30;;;;;;;11.20;7.90;;;;;;;20.39;37.95;100054.02;108379;1269;57150;-80
2023/03/24 11:03:07;;;;;;;15.10;8.00;;;;;;;20.47;37.88;100045.66;108624;1259;64682;-79
2023/03/24 11:05:37;;;;;;;12.50;7.60;;;;;;;20.55;37.79;100047.65;108550;1261;61674;-78
2023/03/24 11:08:13;;;;;;;10.70;7.20;;;;;;;20.66;37.47;100046.66;108628;1260;65191;-78
2023/03/24 11:10:44;;;;;;;9.40;6.80;;;;;;;20.76;37.15;100043.98;108556;1260;57710;-78
2023/03/24 11:13:22;;;;;;;10.90;6.30;;;;;;;20.85;36.64;100040.92;108720;1258;57457;-78
2023/03/24 11:16:15;;;;;;;10.20;6.70;;;;;;;20.88;36.69;100038.02;108555;1260;65358;-77
2023/03/24 11:19:03;;;;;;;10.00;6.60;;;;;;;20.97;36.49;100037.77;108614;1260;61671;-78
2023/03/24 11:21:34;;;;;;;10.90;7.00;;;;;;;21.04;36.14;100034.15;108575;1261;64006;-78
2023/03/24 11:24:08;;;;;;;10.60;6.20;;;;;;;21.04;36.14;100039.29;108584;1260;57632;-78
2023/03/24 11:26:37;;;;;;;11.00;7.20;;;;;;;21.04;36.14;100037.93;107825;1259;59358;-79
2023/03/24 11:29:29;;;;;;;10.80;7.30;;;;;;;21.01;36.18;100030.41;107918;1263;65480;-79
2023/03/24 11:32:02;;;;;;;9.80;7.10;;;;;;;21.01;36.24;100028.44;108106;1263;61551;-77
2023/03/24 11:34:33;;;;;;;9.00;6.80;;;;;;;21.02;36.54;100024.94;107806;1265;64042;-77
2023/03/24 11:37:02;;;;;;;11.50;7.30;;;;;;;21.07;36.71;100023.57;108231;1259;57653;-78
2023/03/24 11:39:33;;;;;;;11.30;7.10;;;;;;;21.15;36.73;100017.05;107874;1259;57538;-78
2023/03/24 11:42:01;;;;;;;9.80;7.10;;;;;;;21.24;36.55;100013.66;107767;1261;64983;-78
2023/03/24 11:44:43;;;;;;;10.90;7.10;;;;;;;21.29;36.53;100010.90;107829;1260;63165;-79
2023/03/24 11:47:29;;;;;;;11.60;7.80;;;;;;;21.33;36.41;100010.55;108817;1262;64008;-78
2023/03/24 11:50:10;;;;;;;10.70;7.50;;;;;;;21.33;36.49;100007.06;108836;1259;57429;-78
2023/03/24 11:52:46;;;;;;;10.10;7.10;;;;;;;21.32;36.32;100006.48;108874;1261;57526;-77
2023/03/24 11:55:16;;;;;;;11.30;7.10;;;;;;;21.33;36.47;100000.02;108763;1260;65105;-78
2023/03/24 11:57:56;;;;;;;12.40;7.70;;;;;;;21.39;36.68;99998.02;108815;1260;61663;-78
2023/03/24 12:00:34;;;;;;;13.30;7.60;;;;;;;21.48;36.69;99996.81;108739;1259;64046;-77
2023/03/24 12:03:25;;;;;;;10.10;7.30;;;;;;;21.61;36.79;99990.38;108851;1260;57643;-78
2023/03/24 12:06:27;;;;;;;11.00;7.00;;;;;;;21.78;36.46;99982.42;108779;1260;57604;-79